sensor_id;sensor_type;location;lat;lon;timestamp;pressure;altitude;pressure_sealevel;temperature;humidity
48968;BME280;46511;53.148;8.204;2022-07-23T00:00:48;101865.19;;;17.65;97.34
48968;BME280;46511;53.148;8.204;2022-07-23T00:03:19;101857.63;;;17.57;97.03
48968;BME280;46511;53.148;8.204;2022-07-23T00:05:45;101850.00;;;17.51;97.45
48968;BME280;46511;53.148;8.204;2022-07-23T00:08:17;101859.25;;;17.47;98.27
48968;BME280;46511;53.148;8.204;2022-07-23T00:10:48;101855.81;;;17.45;98.11
48968;BME280;46511;53.148;8.204;2022-07-23T00:13:19;101858.59;;;17.44;98.11
48968;BME280;46511;53.148;8.204;2022-07-23T00:15:50;101851.59;;;17.41;98.38
48968;BME280;46511;53.148;8.204;2022-07-23T00:18:22;101854.59;;;17.36;98.16
48968;BME280;46511;53.148;8.204;2022-07-23T00:20:53;101862.66;;;17.36;98.99
48968;BME280;46511;53.148;8.204;2022-07-23T00:23:24;101867.94;;;17.38;99.56
48968;BME280;46511;53.148;8.204;2022-07-23T00:25:56;101865.88;;;17.41;99.63
48968;BME280;46511;53.148;8.204;2022-07-23T00:28:22;101866.34;;;17.48;99.03
48968;BME280;46511;53.148;8.204;2022-07-23T00:30:53;101868.59;;;17.54;99.21
48968;BME280;46511;53.148;8.204;2022-07-23T00:33:25;101868.50;;;17.56;98.43
48968;BME280;46511;53.148;8.204;2022-07-23T00:35:51;101867.19;;;17.49;99.00
48968;BME280;46511;53.148;8.204;2022-07-23T00:38:22;101867.59;;;17.42;99.17
48968;BME280;46511;53.148;8.204;2022-07-23T00:40:54;101857.53;;;17.46;99.42
48968;BME280;46511;53.148;8.204;2022-07-23T00:43:25;101846.09;;;17.42;100.00
48968;BME280;46511;53.148;8.204;2022-07-23T00:45:56;101846.31;;;17.39;100.00
48968;BME280;46511;53.148;8.204;2022-07-23T00:48:22;101837.75;;;17.34;100.00
48968;BME280;46511;53.148;8.204;2022-07-23T00:50:54;101834.59;;;17.28;100.00
48968;BME280;46511;53.148;8.204;2022-07-23T00:53:25;101842.22;;;17.21;100.00
48968;BME280;46511;53.148;8.204;2022-07-23T00:55:57;101839.41;;;17.23;100.00
48968;BME280;46511;53.148;8.204;2022-07-23T00:58:29;101856.38;;;17.23;100.00
48968;BME280;46511;53.148;8.204;2022-07-23T01:01:01;101849.28;;;17.22;100.00
48968;BME280;46511;53.148;8.204;2022-07-23T01:03:32;101849.28;;;17.22;100.00
48968;BME280;46511;53.148;8.204;2022-07-23T01:06:04;101844.38;;;17.16;100.00
48968;BME280;46511;53.148;8.204;2022-07-23T01:08:35;101844.44;;;17.14;100.00
48968;BME280;46511;53.148;8.204;2022-07-23T01:11:07;101839.19;;;17.13;100.00
48968;BME280;46511;53.148;8.204;2022-07-23T01:13:42;101833.16;;;17.09;100.00
48968;BME280;46511;53.148;8.204;2022-07-23T01:16:14;101841.50;;;17.05;100.00
48968;BME280;46511;53.148;8.204;2022-07-23T01:18:45;101839.44;;;16.96;100.00
48968;BME280;46511;53.148;8.204;2022-07-23T01:21:16;101838.66;;;17.08;100.00
48968;BME280;46511;53.148;8.204;2022-07-23T01:23:49;101841.13;;;17.11;100.00
48968;BME280;46511;53.148;8.204;2022-07-23T01:26:20;101839.63;;;17.07;100.00
48968;BME280;46511;53.148;8.204;2022-07-23T01:28:51;101848.81;;;17.03;100.00
48968;BME280;46511;53.148;8.204;2022-07-23T01:31:23;101847.75;;;17.05;100.00
48968;BME280;46511;53.148;8.204;2022-07-23T01:33:54;101839.16;;;17.00;100.00
48968;BME280;46511;53.148;8.204;2022-07-23T01:36:25;101838.28;;;17.00;100.00
48968;BME280;46511;53.148;8.204;2022-07-23T01:38:57;101840.22;;;16.98;100.00
48968;BME280;46511;53.148;8.204;2022-07-23T01:41:28;101837.84;;;16.93;100.00
48968;BME280;46511;53.148;8.204;2022-07-23T01:43:59;101835.25;;;16.92;100.00
48968;BME280;46511;53.148;8.204;2022-07-23T01:46:31;101830.22;;;16.87;100.00
48968;BME280;46511;53.148;8.204;2022-07-23T01:49:02;101835.56;;;16.87;100.00
48968;BME280;46511;53.148;8.204;2022-07-23T01:51:33;101835.97;;;16.81;100.00
48968;BME280;46511;53.148;8.204;2022-07-23T01:54:04;101828.78;;;16.81;100.00
48968;BME280;46511;53.148;8.204;2022-07-23T01:56:36;101824.66;;;16.76;100.00
48968;BME280;46511;53.148;8.204;2022-07-23T01:59:07;101819.50;;;16.73;100.00
48968;BME280;46511;53.148;8.204;2022-07-23T02:01:38;101814.94;;;16.61;100.00
48968;BME280;46511;53.148;8.204;2022-07-23T02:04:10;101817.50;;;16.62;100.00
48968;BME280;46511;53.148;8.204;2022-07-23T02:06:41;101810.59;;;16.58;100.00
48968;BME280;46511;53.148;8.204;2022-07-23T02:09:12;101803.72;;;16.54;100.00
48968;BME280;46511;53.148;8.204;2022-07-23T02:11:43;101801.38;;;16.49;100.00
48968;BME280;46511;53.148;8.204;2022-07-23T02:14:15;101793.59;;;16.45;100.00
48968;BME280;46511;53.148;8.204;2022-07-23T02:16:41;101797.97;;;16.60;100.00
48968;BME280;46511;53.148;8.204;2022-07-23T02:19:12;101803.69;;;16.41;100.00
48968;BME280;46511;53.148;8.204;2022-07-23T02:21:43;101798.31;;;16.41;100.00
48968;BME280;46511;53.148;8.204;2022-07-23T02:24:15;101795.75;;;16.40;100.00
48968;BME280;46511;53.148;8.204;2022-07-23T02:26:46;101801.59;;;16.32;100.00
48968;BME280;46511;53.148;8.204;2022-07-23T02:29:17;101801.69;;;16.31;100.00
48968;BME280;46511;53.148;8.204;2022-07-23T02:31:48;101799.63;;;16.21;100.00
48968;BME280;46511;53.148;8.204;2022-07-23T02:34:20;101794.16;;;16.23;100.00
48968;BME280;46511;53.148;8.204;2022-07-23T02:36:51;101793.28;;;16.22;100.00
48968;BME280;46511;53.148;8.204;2022-07-23T02:39:22;101796.25;;;16.18;100.00
48968;BME280;46511;53.148;8.204;2022-07-23T02:41:53;101786.69;;;16.14;100.00
48968;BME280;46511;53.148;8.204;2022-07-23T02:44:25;101787.22;;;15.92;100.00
48968;BME280;46511;53.148;8.204;2022-07-23T02:46:56;101795.69;;;15.98;100.00
48968;BME280;46511;53.148;8.204;2022-07-23T02:49:27;101800.00;;;16.01;100.00
48968;BME280;46511;53.148;8.204;2022-07-23T02:51:59;101793.69;;;15.88;100.00
48968;BME280;46511;53.148;8.204;2022-07-23T02:54:30;101795.22;;;15.78;100.00
48968;BME280;46511;53.148;8.204;2022-07-23T02:57:01;101796.00;;;15.80;100.00
48968;BME280;46511;53.148;8.204;2022-07-23T02:59:32;101797.53;;;15.84;100.00
48968;BME280;46511;53.148;8.204;2022-07-23T03:02:04;101801.25;;;15.81;100.00
48968;BME280;46511;53.148;8.204;2022-07-23T03:04:35;101808.25;;;15.84;100.00
48968;BME280;46511;53.148;8.204;2022-07-23T03:07:07;101802.03;;;15.83;100.00
48968;BME280;46511;53.148;8.204;2022-07-23T03:09:33;101801.56;;;15.77;100.00
48968;BME280;46511;53.148;8.204;2022-07-23T03:12:04;101792.25;;;15.68;100.00
48968;BME280;46511;53.148;8.204;2022-07-23T03:14:35;101790.06;;;15.60;100.00
48968;BME280;46511;53.148;8.204;2022-07-23T03:17:07;101793.16;;;15.53;100.00
48968;BME280;46511;53.148;8.204;2022-07-23T03:19:38;101793.56;;;15.47;100.00
48968;BME280;46511;53.148;8.204;2022-07-23T03:22:09;101794.41;;;15.47;100.00
48968;BME280;46511;53.148;8.204;2022-07-23T03:24:40;101792.50;;;15.49;100.00
48968;BME280;46511;53.148;8.204;2022-07-23T03:27:28;101802.34;;;15.49;100.00
48968;BME280;46511;53.148;8.204;2022-07-23T03:29:59;101806.50;;;15.54;100.00
48968;BME280;46511;53.148;8.204;2022-07-23T03:32:26;101802.16;;;15.52;100.00
48968;BME280;46511;53.148;8.204;2022-07-23T03:34:57;101800.78;;;15.60;100.00
48968;BME280;46511;53.148;8.204;2022-07-23T03:37:24;101801.13;;;15.54;100.00
48968;BME280;46511;53.148;8.204;2022-07-23T03:39:55;101801.63;;;15.61;100.00
48968;BME280;46511;53.148;8.204;2022-07-23T03:42:27;101792.41;;;15.51;100.00
48968;BME280;46511;53.148;8.204;2022-07-23T03:44:58;101797.25;;;15.44;100.00
48968;BME280;46511;53.148;8.204;2022-07-23T03:47:30;101793.63;;;15.31;100.00
48968;BME280;46511;53.148;8.204;2022-07-23T03:50:01;101801.09;;;15.26;100.00
48968;BME280;46511;53.148;8.204;2022-07-23T03:52:32;101808.88;;;15.14;100.00
48968;BME280;46511;53.148;8.204;2022-07-23T03:55:04;101804.38;;;15.15;100.00
48968;BME280;46511;53.148;8.204;2022-07-23T03:57:35;101801.88;;;15.12;100.00
48968;BME280;46511;53.148;8.204;2022-07-23T04:00:07;101803.91;;;15.08;100.00
48968;BME280;46511;53.148;8.204;2022-07-23T04:02:40;101800.44;;;15.06;100.00
48968;BME280;46511;53.148;8.204;2022-07-23T04:05:11;101797.19;;;15.01;100.00
48968;BME280;46511;53.148;8.204;2022-07-23T04:07:42;101800.72;;;15.02;100.00
48968;BME280;46511;53.148;8.204;2022-07-23T04:10:14;101800.63;;;15.03;100.00
48968;BME280;46511;53.148;8.204;2022-07-23T04:12:45;101799.00;;;15.01;100.00
48968;BME280;46511;53.148;8.204;2022-07-23T04:15:16;101805.09;;;15.03;100.00
48968;BME280;46511;53.148;8.204;2022-07-23T04:17:48;101804.25;;;15.02;100.00
48968;BME280;46511;53.148;8.204;2022-07-23T04:20:19;101802.34;;;15.04;100.00
48968;BME280;46511;53.148;8.204;2022-07-23T04:22:50;101805.78;;;15.06;100.00
48968;BME280;46511;53.148;8.204;2022-07-23T04:25:22;101795.16;;;15.05;100.00
48968;BME280;46511;53.148;8.204;2022-07-23T04:27:53;101791.47;;;15.07;100.00
48968;BME280;46511;53.148;8.204;2022-07-23T04:30:19;101791.63;;;15.04;100.00
48968;BME280;46511;53.148;8.204;2022-07-23T04:32:50;101798.16;;;15.14;100.00
48968;BME280;46511;53.148;8.204;2022-07-23T04:35:22;101797.81;;;15.21;100.00
48968;BME280;46511;53.148;8.204;2022-07-23T04:37:53;101795.03;;;15.22;100.00
48968;BME280;46511;53.148;8.204;2022-07-23T04:40:25;101804.31;;;15.31;100.00
48968;BME280;46511;53.148;8.204;2022-07-23T04:42:56;101808.38;;;15.38;100.00
48968;BME280;46511;53.148;8.204;2022-07-23T04:45:27;101808.56;;;15.49;100.00
48968;BME280;46511;53.148;8.204;2022-07-23T04:47:59;101804.47;;;15.58;100.00
48968;BME280;46511;53.148;8.204;2022-07-23T04:50:30;101817.69;;;15.61;100.00
48968;BME280;46511;53.148;8.204;2022-07-23T04:53:01;101815.44;;;15.83;100.00
48968;BME280;46511;53.148;8.204;2022-07-23T04:55:32;101811.13;;;15.95;100.00
48968;BME280;46511;53.148;8.204;2022-07-23T04:58:04;101820.47;;;16.16;100.00
48968;BME280;46511;53.148;8.204;2022-07-23T05:00:35;101808.97;;;16.28;100.00
48968;BME280;46511;53.148;8.204;2022-07-23T05:03:06;101812.44;;;16.31;100.00
48968;BME280;46511;53.148;8.204;2022-07-23T05:05:38;101815.88;;;16.33;100.00
48968;BME280;46511;53.148;8.204;2022-07-23T05:08:09;101818.47;;;16.61;100.00
48968;BME280;46511;53.148;8.204;2022-07-23T05:10:40;101816.19;;;17.09;100.00
48968;BME280;46511;53.148;8.204;2022-07-23T05:13:11;101821.63;;;17.34;100.00
48968;BME280;46511;53.148;8.204;2022-07-23T05:15:45;101814.69;;;17.70;100.00
48968;BME280;46511;53.148;8.204;2022-07-23T05:18:16;101813.47;;;17.99;98.27
48968;BME280;46511;53.148;8.204;2022-07-23T05:20:47;101813.03;;;18.06;97.16
48968;BME280;46511;53.148;8.204;2022-07-23T05:23:19;101801.25;;;17.70;98.06
48968;BME280;46511;53.148;8.204;2022-07-23T05:25:50;101800.34;;;17.57;98.78
48968;BME280;46511;53.148;8.204;2022-07-23T05:28:16;101804.69;;;17.72;98.75
48968;BME280;46511;53.148;8.204;2022-07-23T05:30:48;101807.56;;;17.69;98.76
48968;BME280;46511;53.148;8.204;2022-07-23T05:33:19;101806.19;;;17.63;98.46
48968;BME280;46511;53.148;8.204;2022-07-23T05:35:50;101812.53;;;17.10;100.00
48968;BME280;46511;53.148;8.204;2022-07-23T05:38:21;101811.84;;;17.46;99.91
48968;BME280;46511;53.148;8.204;2022-07-23T05:40:53;101824.25;;;17.74;97.63
48968;BME280;46511;53.148;8.204;2022-07-23T05:43:24;101832.63;;;17.95;97.31
48968;BME280;46511;53.148;8.204;2022-07-23T05:45:55;101827.41;;;18.30;95.93
48968;BME280;46511;53.148;8.204;2022-07-23T05:48:27;101826.50;;;18.42;94.78
48968;BME280;46511;53.148;8.204;2022-07-23T05:50:58;101834.34;;;18.45;93.61
48968;BME280;46511;53.148;8.204;2022-07-23T05:53:29;101832.22;;;18.38;93.89
48968;BME280;46511;53.148;8.204;2022-07-23T05:56:01;101826.66;;;18.77;92.44
48968;BME280;46511;53.148;8.204;2022-07-23T05:58:32;101832.97;;;19.00;90.52
48968;BME280;46511;53.148;8.204;2022-07-23T06:01:03;101836.97;;;19.19;89.64
48968;BME280;46511;53.148;8.204;2022-07-23T06:03:34;101830.41;;;18.75;89.04
48968;BME280;46511;53.148;8.204;2022-07-23T06:06:06;101836.03;;;19.77;87.11
48968;BME280;46511;53.148;8.204;2022-07-23T06:08:37;101832.50;;;20.44;82.02
48968;BME280;46511;53.148;8.204;2022-07-23T06:11:08;101847.47;;;21.23;80.06
48968;BME280;46511;53.148;8.204;2022-07-23T06:13:39;101847.81;;;21.30;77.40
48968;BME280;46511;53.148;8.204;2022-07-23T06:16:11;101848.16;;;21.36;77.46
48968;BME280;46511;53.148;8.204;2022-07-23T06:18:42;101847.66;;;20.78;79.51
48968;BME280;46511;53.148;8.204;2022-07-23T06:21:14;101848.41;;;20.69;77.67
48968;BME280;46511;53.148;8.204;2022-07-23T06:23:45;101851.13;;;20.36;80.45
48968;BME280;46511;53.148;8.204;2022-07-23T06:26:17;101862.28;;;20.42;81.97
48968;BME280;46511;53.148;8.204;2022-07-23T06:28:48;101857.25;;;20.15;82.08
48968;BME280;46511;53.148;8.204;2022-07-23T06:31:19;101865.63;;;20.01;82.46
48968;BME280;46511;53.148;8.204;2022-07-23T06:33:50;101863.88;;;20.34;81.06
48968;BME280;46511;53.148;8.204;2022-07-23T06:36:22;101864.84;;;20.55;80.58
48968;BME280;46511;53.148;8.204;2022-07-23T06:38:53;101869.66;;;20.29;81.37
48968;BME280;46511;53.148;8.204;2022-07-23T06:41:24;101874.19;;;20.62;80.48
48968;BME280;46511;53.148;8.204;2022-07-23T06:43:55;101867.56;;;20.33;80.66
48968;BME280;46511;53.148;8.204;2022-07-23T06:46:27;101871.97;;;20.22;83.15
48968;BME280;46511;53.148;8.204;2022-07-23T06:48:58;101870.38;;;20.31;82.25
48968;BME280;46511;53.148;8.204;2022-07-23T06:51:29;101868.97;;;20.81;80.99
48968;BME280;46511;53.148;8.204;2022-07-23T06:54:01;101876.63;;;20.65;82.36
48968;BME280;46511;53.148;8.204;2022-07-23T06:56:32;101872.22;;;20.53;81.36
48968;BME280;46511;53.148;8.204;2022-07-23T06:59:03;101867.56;;;20.21;81.25
48968;BME280;46511;53.148;8.204;2022-07-23T07:01:35;101867.53;;;19.88;82.51
48968;BME280;46511;53.148;8.204;2022-07-23T07:04:06;101872.31;;;19.62;84.86
48968;BME280;46511;53.148;8.204;2022-07-23T07:06:37;101867.38;;;19.56;85.34
48968;BME280;46511;53.148;8.204;2022-07-23T07:09:08;101872.22;;;19.97;85.30
48968;BME280;46511;53.148;8.204;2022-07-23T07:11:40;101871.59;;;19.47;85.84
48968;BME280;46511;53.148;8.204;2022-07-23T07:14:11;101878.47;;;18.92;88.98
48968;BME280;46511;53.148;8.204;2022-07-23T07:16:42;101885.28;;;18.85;91.01
48968;BME280;46511;53.148;8.204;2022-07-23T07:19:13;101887.19;;;18.46;93.17
48968;BME280;46511;53.148;8.204;2022-07-23T07:21:45;101893.47;;;18.34;95.38
48968;BME280;46511;53.148;8.204;2022-07-23T07:24:16;101892.94;;;18.29;96.75
48968;BME280;46511;53.148;8.204;2022-07-23T07:26:47;101891.03;;;18.55;96.73
48968;BME280;46511;53.148;8.204;2022-07-23T07:29:18;101889.47;;;18.89;95.31
48968;BME280;46511;53.148;8.204;2022-07-23T07:31:45;101894.91;;;18.64;93.36
48968;BME280;46511;53.148;8.204;2022-07-23T07:34:16;101891.88;;;19.29;91.52
48968;BME280;46511;53.148;8.204;2022-07-23T07:36:42;101889.91;;;19.31;91.08
48968;BME280;46511;53.148;8.204;2022-07-23T07:39:14;101886.13;;;19.68;88.01
48968;BME280;46511;53.148;8.204;2022-07-23T07:41:45;101891.56;;;19.80;87.57
48968;BME280;46511;53.148;8.204;2022-07-23T07:44:16;101894.44;;;20.01;86.80
48968;BME280;46511;53.148;8.204;2022-07-23T07:46:48;101895.75;;;20.17;84.70
48968;BME280;46511;53.148;8.204;2022-07-23T07:49:19;101903.63;;;20.09;85.73
48968;BME280;46511;53.148;8.204;2022-07-23T07:51:50;101905.22;;;20.01;85.43
48968;BME280;46511;53.148;8.204;2022-07-23T07:54:21;101901.16;;;19.95;84.54
48968;BME280;46511;53.148;8.204;2022-07-23T07:56:53;101907.59;;;19.70;86.02
48968;BME280;46511;53.148;8.204;2022-07-23T07:59:24;101910.34;;;19.81;85.92
48968;BME280;46511;53.148;8.204;2022-07-23T08:01:56;101904.34;;;19.54;85.13
48968;BME280;46511;53.148;8.204;2022-07-23T08:04:27;101906.41;;;19.85;85.40
48968;BME280;46511;53.148;8.204;2022-07-23T08:06:58;101915.66;;;20.61;81.92
48968;BME280;46511;53.148;8.204;2022-07-23T08:09:29;101920.66;;;20.88;81.05
48968;BME280;46511;53.148;8.204;2022-07-23T08:12:01;101919.16;;;21.38;78.90
48968;BME280;46511;53.148;8.204;2022-07-23T08:14:32;101922.28;;;21.96;77.40
48968;BME280;46511;53.148;8.204;2022-07-23T08:17:03;101922.00;;;22.41;74.31
48968;BME280;46511;53.148;8.204;2022-07-23T08:19:34;101910.94;;;23.52;67.98
48968;BME280;46511;53.148;8.204;2022-07-23T08:22:06;101918.91;;;22.25;71.71
48968;BME280;46511;53.148;8.204;2022-07-23T08:24:37;101922.06;;;23.30;69.52
48968;BME280;46511;53.148;8.204;2022-07-23T08:27:08;101916.34;;;22.94;70.45
48968;BME280;46511;53.148;8.204;2022-07-23T08:29:40;101922.19;;;23.09;66.59
48968;BME280;46511;53.148;8.204;2022-07-23T08:32:11;101915.56;;;22.83;67.30
48968;BME280;46511;53.148;8.204;2022-07-23T08:34:42;101916.38;;;23.72;63.97
48968;BME280;46511;53.148;8.204;2022-07-23T08:37:13;101914.16;;;24.04;64.50
48968;BME280;46511;53.148;8.204;2022-07-23T08:39:45;101916.25;;;24.20;62.04
48968;BME280;46511;53.148;8.204;2022-07-23T08:42:16;101906.25;;;25.30;55.07
48968;BME280;46511;53.148;8.204;2022-07-23T08:44:48;101906.97;;;27.04;53.55
48968;BME280;46511;53.148;8.204;2022-07-23T08:47:20;101905.31;;;27.60;47.69
48968;BME280;46511;53.148;8.204;2022-07-23T08:49:51;101906.03;;;27.79;44.82
48968;BME280;46511;53.148;8.204;2022-07-23T08:52:22;101894.22;;;26.71;46.34
48968;BME280;46511;53.148;8.204;2022-07-23T08:54:54;101902.88;;;27.09;47.10
48968;BME280;46511;53.148;8.204;2022-07-23T08:57:26;101891.13;;;28.06;44.74
48968;BME280;46511;53.148;8.204;2022-07-23T08:59:58;101904.94;;;27.15;45.55
48968;BME280;46511;53.148;8.204;2022-07-23T09:02:29;101890.31;;;27.40;41.40
48968;BME280;46511;53.148;8.204;2022-07-23T09:04:55;101903.09;;;27.97;42.56
48968;BME280;46511;53.148;8.204;2022-07-23T09:07:26;101890.66;;;27.70;42.00
48968;BME280;46511;53.148;8.204;2022-07-23T09:10:04;101899.53;;;27.80;42.10
48968;BME280;46511;53.148;8.204;2022-07-23T09:12:36;101898.97;;;29.64;39.59
48968;BME280;46511;53.148;8.204;2022-07-23T09:15:08;101891.88;;;30.22;35.82
48968;BME280;46511;53.148;8.204;2022-07-23T09:17:40;101904.41;;;28.64;39.42
48968;BME280;46511;53.148;8.204;2022-07-23T09:20:13;101892.28;;;28.11;40.65
48968;BME280;46511;53.148;8.204;2022-07-23T09:22:45;101899.31;;;27.65;40.05
48968;BME280;46511;53.148;8.204;2022-07-23T09:25:18;101897.41;;;26.16;43.28
48968;BME280;46511;53.148;8.204;2022-07-23T09:27:56;101896.97;;;26.37;44.15
48968;BME280;46511;53.148;8.204;2022-07-23T09:30:29;101899.31;;;26.58;44.02
48968;BME280;46511;53.148;8.204;2022-07-23T09:33:10;101901.22;;;27.40;42.28
48968;BME280;46511;53.148;8.204;2022-07-23T09:35:46;101892.81;;;28.07;42.90
48968;BME280;46511;53.148;8.204;2022-07-23T09:38:13;101894.06;;;27.39;42.67
48968;BME280;46511;53.148;8.204;2022-07-23T09:40:44;101895.19;;;25.94;43.85
48968;BME280;46511;53.148;8.204;2022-07-23T09:43:26;101898.03;;;28.33;42.10
48968;BME280;46511;53.148;8.204;2022-07-23T09:48:49;101897.09;;;30.47;35.67
48968;BME280;46511;53.148;8.204;2022-07-23T09:51:22;101894.19;;;29.81;36.29
48968;BME280;46511;53.148;8.204;2022-07-23T09:54:19;101900.38;;;33.76;30.63
48968;BME280;46511;53.148;8.204;2022-07-23T09:56:51;101897.72;;;35.24;27.03
48968;BME280;46511;53.148;8.204;2022-07-23T09:59:25;101896.13;;;33.41;28.97
48968;BME280;46511;53.148;8.204;2022-07-23T10:01:58;101895.97;;;31.49;30.46
48968;BME280;46511;53.148;8.204;2022-07-23T10:04:30;101896.97;;;31.20;34.12
48968;BME280;46511;53.148;8.204;2022-07-23T10:07:03;101899.25;;;30.66;33.97
48968;BME280;46511;53.148;8.204;2022-07-23T10:09:35;101896.31;;;29.56;35.60
48968;BME280;46511;53.148;8.204;2022-07-23T10:12:12;101903.38;;;30.03;34.60
48968;BME280;46511;53.148;8.204;2022-07-23T10:15:02;101896.59;;;29.99;33.72
48968;BME280;46511;53.148;8.204;2022-07-23T10:17:34;101898.97;;;28.64;36.02
48968;BME280;46511;53.148;8.204;2022-07-23T10:20:05;101898.41;;;31.02;34.31
48968;BME280;46511;53.148;8.204;2022-07-23T10:22:38;101901.44;;;30.11;33.39
48968;BME280;46511;53.148;8.204;2022-07-23T10:27:44;101907.63;;;29.53;34.85
48968;BME280;46511;53.148;8.204;2022-07-23T10:30:28;101910.69;;;29.58;33.50
48968;BME280;46511;53.148;8.204;2022-07-23T10:36:05;101907.22;;;31.33;33.75
48968;BME280;46511;53.148;8.204;2022-07-23T10:38:51;101911.25;;;32.43;29.11
48968;BME280;46511;53.148;8.204;2022-07-23T10:41:33;101898.84;;;34.78;25.74
48968;BME280;46511;53.148;8.204;2022-07-23T10:44:08;101908.72;;;32.89;27.95
48968;BME280;46511;53.148;8.204;2022-07-23T10:47:13;101908.56;;;31.87;29.08
48968;BME280;46511;53.148;8.204;2022-07-23T10:50:16;101896.88;;;32.13;29.15
48968;BME280;46511;53.148;8.204;2022-07-23T10:55:40;101901.88;;;31.10;29.82
48968;BME280;46511;53.148;8.204;2022-07-23T10:58:16;101894.88;;;31.72;30.47
48968;BME280;46511;53.148;8.204;2022-07-23T11:00:49;101896.75;;;34.67;25.03
48968;BME280;46511;53.148;8.204;2022-07-23T11:03:27;101895.28;;;33.87;25.99
48968;BME280;46511;53.148;8.204;2022-07-23T11:05:59;101898.41;;;30.80;29.65
48968;BME280;46511;53.148;8.204;2022-07-23T11:08:30;101904.03;;;29.90;32.36
48968;BME280;46511;53.148;8.204;2022-07-23T11:13:46;101889.53;;;33.29;26.90
48968;BME280;46511;53.148;8.204;2022-07-23T11:16:18;101897.19;;;30.09;30.33
48968;BME280;46511;53.148;8.204;2022-07-23T11:18:57;101904.03;;;28.76;32.66
48968;BME280;46511;53.148;8.204;2022-07-23T11:24:11;101917.50;;;28.38;33.08
48968;BME280;46511;53.148;8.204;2022-07-23T11:29:40;101916.63;;;29.99;30.13
48968;BME280;46511;53.148;8.204;2022-07-23T11:32:18;101926.47;;;29.02;32.67
48968;BME280;46511;53.148;8.204;2022-07-23T11:34:50;101918.59;;;31.15;29.17
48968;BME280;46511;53.148;8.204;2022-07-23T11:37:40;101909.19;;;34.45;24.23
48968;BME280;46511;53.148;8.204;2022-07-23T11:40:12;101907.94;;;35.24;23.70
48968;BME280;46511;53.148;8.204;2022-07-23T11:42:57;101896.69;;;35.25;23.10
48968;BME280;46511;53.148;8.204;2022-07-23T11:45:38;101903.88;;;34.95;22.72
48968;BME280;46511;53.148;8.204;2022-07-23T11:48:15;101898.84;;;35.98;22.65
48968;BME280;46511;53.148;8.204;2022-07-23T11:50:48;101891.47;;;33.88;23.75
48968;BME280;46511;53.148;8.204;2022-07-23T11:53:26;101901.31;;;31.79;27.75
48968;BME280;46511;53.148;8.204;2022-07-23T11:58:36;101915.56;;;27.91;33.42
48968;BME280;46511;53.148;8.204;2022-07-23T12:01:08;101918.44;;;27.24;34.75
48968;BME280;46511;53.148;8.204;2022-07-23T12:03:49;101906.63;;;30.21;30.31
48968;BME280;46511;53.148;8.204;2022-07-23T12:06:21;101910.06;;;32.24;26.77
48968;BME280;46511;53.148;8.204;2022-07-23T12:08:52;101914.19;;;30.49;29.05
48968;BME280;46511;53.148;8.204;2022-07-23T12:11:23;101915.53;;;28.07;32.60
48968;BME280;46511;53.148;8.204;2022-07-23T12:13:55;101917.06;;;28.10;33.42
48968;BME280;46511;53.148;8.204;2022-07-23T12:16:27;101916.56;;;28.62;32.97
48968;BME280;46511;53.148;8.204;2022-07-23T12:18:58;101919.97;;;28.08;32.86
48968;BME280;46511;53.148;8.204;2022-07-23T12:21:29;101918.94;;;28.65;32.23
48968;BME280;46511;53.148;8.204;2022-07-23T12:24:07;101912.56;;;30.84;28.43
48968;BME280;46511;53.148;8.204;2022-07-23T12:26:38;101915.88;;;32.07;26.92
48968;BME280;46511;53.148;8.204;2022-07-23T12:29:10;101911.81;;;34.13;24.94
48968;BME280;46511;53.148;8.204;2022-07-23T12:31:41;101907.75;;;36.00;23.13
48968;BME280;46511;53.148;8.204;2022-07-23T12:34:15;101913.94;;;32.71;25.45
48968;BME280;46511;53.148;8.204;2022-07-23T12:36:46;101920.03;;;29.64;28.81
48968;BME280;46511;53.148;8.204;2022-07-23T12:39:31;101926.72;;;28.45;31.69
48968;BME280;46511;53.148;8.204;2022-07-23T12:42:02;101925.94;;;28.04;31.83
48968;BME280;46511;53.148;8.204;2022-07-23T12:44:51;101924.94;;;26.73;33.70
48968;BME280;46511;53.148;8.204;2022-07-23T12:53:20;101923.97;;;31.02;29.60
48968;BME280;46511;53.148;8.204;2022-07-23T12:56:05;101926.72;;;29.15;30.83
48968;BME280;46511;53.148;8.204;2022-07-23T12:58:56;101931.38;;;28.76;32.82
48968;BME280;46511;53.148;8.204;2022-07-23T13:01:29;101920.72;;;32.05;29.60
48968;BME280;46511;53.148;8.204;2022-07-23T13:09:11;101923.63;;;33.21;25.92
48968;BME280;46511;53.148;8.204;2022-07-23T13:11:44;101924.94;;;34.11;25.40
48968;BME280;46511;53.148;8.204;2022-07-23T13:14:16;101923.91;;;33.66;25.45
48968;BME280;46511;53.148;8.204;2022-07-23T13:16:49;101928.63;;;29.98;29.88
48968;BME280;46511;53.148;8.204;2022-07-23T13:19:21;101938.44;;;29.01;31.55
48968;BME280;46511;53.148;8.204;2022-07-23T13:21:53;101943.22;;;29.30;32.17
48968;BME280;46511;53.148;8.204;2022-07-23T13:24:24;101939.59;;;29.98;30.97
48968;BME280;46511;53.148;8.204;2022-07-23T13:26:55;101932.44;;;31.43;28.68
48968;BME280;46511;53.148;8.204;2022-07-23T13:29:26;101929.03;;;31.63;27.88
48968;BME280;46511;53.148;8.204;2022-07-23T13:31:58;101927.28;;;32.04;26.61
48968;BME280;46511;53.148;8.204;2022-07-23T13:34:29;101931.13;;;33.93;26.56
48968;BME280;46511;53.148;8.204;2022-07-23T13:37:01;101927.84;;;35.32;25.55
48968;BME280;46511;53.148;8.204;2022-07-23T13:39:32;101933.66;;;35.81;23.19
48968;BME280;46511;53.148;8.204;2022-07-23T13:42:03;101924.53;;;36.23;23.06
48968;BME280;46511;53.148;8.204;2022-07-23T13:44:34;101928.34;;;36.96;22.33